createdAt,value
2019-05-10T00:01:08.344Z,13.16
2019-05-10T00:03:56.067Z,13.15
2019-05-10T00:06:44.335Z,13.12
2019-05-10T00:09:13.674Z,13.03
2019-05-10T00:12:04.243Z,12.93
2019-05-10T00:14:59.976Z,12.90
2019-05-10T00:17:31.833Z,12.88
2019-05-10T00:20:03.362Z,12.82
2019-05-10T00:22:34.658Z,12.76
2019-05-10T00:25:05.937Z,12.72
2019-05-10T00:27:36.514Z,12.77
2019-05-10T00:30:07.106Z,12.71
2019-05-10T00:32:37.047Z,12.72
2019-05-10T00:35:11.597Z,12.69
2019-05-10T00:37:42.512Z,12.61
2019-05-10T00:40:13.674Z,12.63
2019-05-10T00:42:45.017Z,12.64
2019-05-10T00:45:16.156Z,12.59
2019-05-10T00:47:47.138Z,12.56
2019-05-10T00:50:18.545Z,12.52
2019-05-10T00:52:49.422Z,12.47
2019-05-10T00:55:19.951Z,12.46
2019-05-10T00:57:50.755Z,12.35
2019-05-10T01:00:20.903Z,12.30
2019-05-10T01:02:50.747Z,12.30
2019-05-10T01:05:21.870Z,12.31
2019-05-10T01:07:52.896Z,12.33
2019-05-10T01:10:22.862Z,12.31
2019-05-10T01:12:52.748Z,12.28
2019-05-10T01:15:23.278Z,12.24
2019-05-10T01:17:53.191Z,12.32
2019-05-10T01:20:24.359Z,12.38
2019-05-10T01:22:54.292Z,12.43
2019-05-10T01:25:34.652Z,12.44
2019-05-10T01:27:56.044Z,12.47
2019-05-10T01:30:26.332Z,12.52
2019-05-10T01:32:56.528Z,12.61
2019-05-10T01:35:26.829Z,12.72
2019-05-10T01:37:57.265Z,12.78
2019-05-10T01:40:27.228Z,12.80
2019-05-10T01:42:57.305Z,12.81
2019-05-10T01:45:29.061Z,12.90
2019-05-10T01:48:00.127Z,12.90
2019-05-10T01:50:34.481Z,12.93
2019-05-10T01:53:04.473Z,12.96
2019-05-10T01:55:50.449Z,12.93
2019-05-10T01:58:06.841Z,12.91
2019-05-10T02:00:38.038Z,12.96
2019-05-10T02:03:07.879Z,12.96
2019-05-10T02:05:40.158Z,12.96
2019-05-10T02:08:12.313Z,12.96
2019-05-10T02:10:44.840Z,13.03
2019-05-10T02:13:15.243Z,13.03
2019-05-10T02:15:45.289Z,13.01
2019-05-10T02:18:15.277Z,13.05
2019-05-10T02:20:45.201Z,12.97
2019-05-10T02:23:15.399Z,13.01
2019-05-10T02:25:45.920Z,13.01
2019-05-10T02:28:15.822Z,13.05
2019-05-10T02:30:45.939Z,13.09
2019-05-10T02:33:16.054Z,13.03
2019-05-10T02:35:45.977Z,13.04
2019-05-10T02:38:15.958Z,13.03
2019-05-10T02:40:46.458Z,13.11
2019-05-10T02:43:16.283Z,13.16
2019-05-10T02:45:46.307Z,13.14
2019-05-10T02:48:16.657Z,13.22
2019-05-10T02:50:47.275Z,13.16
2019-05-10T02:53:17.914Z,13.10
2019-05-10T02:55:49.450Z,13.05
2019-05-10T02:58:21.338Z,13.17
2019-05-10T03:00:53.713Z,13.22
2019-05-10T03:03:27.828Z,12.68
2019-05-10T03:05:58.096Z,13.14
2019-05-10T03:08:31.011Z,13.05
2019-05-10T03:11:01.101Z,13.07
2019-05-10T03:13:31.527Z,13.05
2019-05-10T03:16:04.932Z,12.99
2019-05-10T03:18:35.118Z,12.92
2019-05-10T03:21:07.625Z,12.93
2019-05-10T03:23:39.437Z,13.01
2019-05-10T03:26:10.175Z,13.08
2019-05-10T03:28:41.016Z,13.14
2019-05-10T03:31:11.901Z,13.20
2019-05-10T03:33:42.174Z,12.60
2019-05-10T03:36:12.875Z,13.12
2019-05-10T03:38:43.403Z,13.00
2019-05-10T03:41:14.007Z,13.03
2019-05-10T03:43:44.168Z,12.90
2019-05-10T03:46:14.587Z,12.98
2019-05-10T03:48:45.115Z,12.42
2019-05-10T03:51:15.151Z,12.93
2019-05-10T03:53:45.329Z,12.94
2019-05-10T03:56:15.643Z,12.94
2019-05-10T03:58:45.679Z,12.95
2019-05-10T04:01:16.405Z,12.94
2019-05-10T04:03:46.688Z,12.99
2019-05-10T04:06:16.747Z,12.89
2019-05-10T04:08:46.721Z,12.86
2019-05-10T04:11:16.932Z,12.87
2019-05-10T04:13:46.996Z,12.81
2019-05-10T04:16:18.081Z,12.83
2019-05-10T04:18:48.700Z,12.85
2019-05-10T04:21:18.826Z,12.92
2019-05-10T04:23:49.821Z,12.99
2019-05-10T04:26:21.324Z,13.00
2019-05-10T04:28:52.120Z,13.04
2019-05-10T04:31:24.397Z,13.02
2019-05-10T04:33:55.229Z,13.11
2019-05-10T04:36:27.154Z,13.20
2019-05-10T04:38:57.634Z,13.24
2019-05-10T04:41:28.879Z,13.36
2019-05-10T04:43:59.737Z,13.52
2019-05-10T04:46:30.722Z,13.61
2019-05-10T04:49:01.747Z,13.60
2019-05-10T04:51:33.099Z,13.61
2019-05-10T04:54:05.404Z,13.69
2019-05-10T04:56:35.530Z,13.69
2019-05-10T04:59:07.743Z,13.73
2019-05-10T05:01:38.847Z,13.61
2019-05-10T05:04:09.073Z,13.43
2019-05-10T05:06:40.572Z,12.77
2019-05-10T05:09:11.488Z,13.04
2019-05-10T05:11:41.614Z,12.83
2019-05-10T05:14:12.565Z,12.82
2019-05-10T05:16:43.356Z,12.19
2019-05-10T05:19:14.170Z,12.16
2019-05-10T05:21:44.477Z,12.60
2019-05-10T05:24:17.103Z,12.65
2019-05-10T05:26:47.090Z,12.72
2019-05-10T05:29:17.037Z,12.61
2019-05-10T05:31:53.964Z,12.56
2019-05-10T05:34:24.512Z,12.64
2019-05-10T05:36:56.037Z,12.17
2019-05-10T05:39:26.155Z,12.62
2019-05-10T05:41:57.155Z,12.73
2019-05-10T05:44:27.945Z,12.21
2019-05-10T05:46:58.778Z,12.81
2019-05-10T05:49:30.373Z,12.95
2019-05-10T05:52:01.194Z,13.20
2019-05-10T05:54:31.851Z,13.46
2019-05-10T05:57:03.601Z,13.71
2019-05-10T05:59:33.853Z,13.76
2019-05-10T06:02:07.569Z,14.06
2019-05-10T06:04:40.723Z,14.33
2019-05-10T06:07:10.654Z,14.46
2019-05-10T06:09:47.777Z,14.65
2019-05-10T06:12:19.875Z,14.75
2019-05-10T06:14:52.404Z,14.87
2019-05-10T06:17:23.693Z,14.98
2019-05-10T06:20:14.561Z,14.97
2019-05-10T06:23:04.928Z,15.01
2019-05-10T06:25:37.183Z,14.99
2019-05-10T06:27:50.883Z,14.96
2019-05-10T06:30:21.086Z,15.05
2019-05-10T06:33:00.314Z,14.66
2019-05-10T06:35:29.385Z,14.49
2019-05-10T06:37:59.835Z,14.54
2019-05-10T06:40:34.730Z,14.39
2019-05-10T06:43:06.751Z,14.24
2019-05-10T06:45:35.040Z,14.35
2019-05-10T06:48:05.139Z,14.31
2019-05-10T06:50:36.152Z,14.16
2019-05-10T06:53:10.899Z,14.20
2019-05-10T06:55:40.535Z,14.27
2019-05-10T06:58:11.365Z,14.16
2019-05-10T07:00:49.142Z,14.11
2019-05-10T07:03:23.250Z,14.19
2019-05-10T07:05:54.621Z,14.38
2019-05-10T07:08:24.729Z,14.46
2019-05-10T07:10:54.818Z,14.52
2019-05-10T07:13:25.163Z,14.52
2019-05-10T07:15:57.442Z,14.72
2019-05-10T07:18:27.807Z,14.84
2019-05-10T07:21:06.649Z,14.88
2019-05-10T07:23:38.949Z,15.03
2019-05-10T07:26:09.877Z,15.07
2019-05-10T07:28:40.340Z,15.27
2019-05-10T07:31:11.247Z,15.76
2019-05-10T07:33:42.303Z,16.38
2019-05-10T07:36:15.202Z,16.73
2019-05-10T07:38:45.507Z,16.87
2019-05-10T07:41:19.569Z,16.92
2019-05-10T07:43:48.361Z,16.90
2019-05-10T07:46:18.513Z,17.16
2019-05-10T07:48:53.298Z,16.81
2019-05-10T07:51:22.998Z,16.68
2019-05-10T07:53:57.029Z,16.88
2019-05-10T07:56:26.411Z,16.95
2019-05-10T07:59:00.463Z,17.24
2019-05-10T08:01:32.878Z,17.02
2019-05-10T08:04:01.288Z,17.53
2019-05-10T08:06:40.291Z,17.25
2019-05-10T08:09:09.695Z,17.27
2019-05-10T08:11:39.288Z,17.43
2019-05-10T08:14:11.261Z,17.54
2019-05-10T08:16:42.686Z,17.80
2019-05-10T08:19:14.257Z,17.53
2019-05-10T08:21:48.886Z,17.20
2019-05-10T08:24:18.069Z,17.24
2019-05-10T08:26:48.325Z,17.56
2019-05-10T08:29:18.459Z,17.82
2019-05-10T08:31:52.839Z,17.68
2019-05-10T08:34:29.070Z,17.92
2019-05-10T08:36:57.366Z,18.25
2019-05-10T08:39:34.819Z,18.44
2019-05-10T08:42:27.351Z,18.46
2019-05-10T08:44:38.356Z,18.20
2019-05-10T08:47:15.729Z,18.08
2019-05-10T08:49:52.460Z,17.97
2019-05-10T08:52:12.927Z,18.19
2019-05-10T08:54:42.986Z,18.26
2019-05-10T08:57:18.626Z,18.55
2019-05-10T08:59:46.901Z,18.37
2019-05-10T09:02:23.105Z,18.40
2019-05-10T09:04:52.914Z,18.36
2019-05-10T09:07:23.503Z,18.31
2019-05-10T09:09:55.583Z,18.18
2019-05-10T09:12:25.924Z,17.87
2019-05-10T09:15:05.536Z,17.20
2019-05-10T09:17:28.569Z,16.80
2019-05-10T09:19:58.921Z,16.41
2019-05-10T09:22:34.109Z,16.41
2019-05-10T09:25:04.639Z,16.32
2019-05-10T09:27:36.532Z,16.61
2019-05-10T09:30:14.104Z,16.94
2019-05-10T09:32:43.599Z,17.60
2019-05-10T09:35:14.745Z,17.35
2019-05-10T09:37:47.683Z,17.15
2019-05-10T09:42:47.623Z,16.54
2019-05-10T09:45:18.138Z,16.64
2019-05-10T09:47:49.446Z,16.62
2019-05-10T09:50:22.944Z,16.46
2019-05-10T09:52:53.013Z,16.37
2019-05-10T09:55:25.060Z,16.58
2019-05-10T09:57:58.373Z,16.87
2019-05-10T10:00:37.717Z,16.88
2019-05-10T10:03:08.444Z,17.32
2019-05-10T10:05:40.465Z,17.54
2019-05-10T10:08:12.307Z,17.71
2019-05-10T10:10:43.273Z,17.67
2019-05-10T10:13:25.533Z,17.54
2019-05-10T10:15:51.945Z,17.63
2019-05-10T10:18:25.100Z,18.04
2019-05-10T10:20:52.621Z,18.36
2019-05-10T10:23:24.788Z,18.43
2019-05-10T10:25:57.959Z,18.12
2019-05-10T10:28:28.780Z,17.90
2019-05-10T10:31:05.272Z,17.67
2019-05-10T10:33:32.637Z,17.85
2019-05-10T10:36:05.106Z,17.79
2019-05-10T10:38:45.022Z,17.91
2019-05-10T10:41:09.859Z,18.16
2019-05-10T10:43:41.007Z,18.26
2019-05-10T10:46:12.708Z,18.21
2019-05-10T10:48:48.941Z,18.32
2019-05-10T10:51:15.458Z,18.19
2019-05-10T10:53:47.074Z,18.86
2019-05-10T10:56:18.168Z,19.10
2019-05-10T10:58:50.049Z,19.17
2019-05-10T11:01:25.330Z,19.43
2019-05-10T11:03:52.463Z,19.80
2019-05-10T11:06:23.476Z,19.27
2019-05-10T11:08:53.609Z,19.45
2019-05-10T11:11:24.395Z,19.36
2019-05-10T11:14:00.623Z,19.39
2019-05-10T11:16:27.469Z,19.21
2019-05-10T11:19:03.896Z,19.51
2019-05-10T11:21:33.425Z,19.73
2019-05-10T11:24:10.473Z,19.35
2019-05-10T11:26:37.415Z,18.87
2019-05-10T11:29:13.954Z,18.13
2019-05-10T11:31:43.559Z,17.78
2019-05-10T11:34:15.317Z,17.37
2019-05-10T11:36:47.885Z,17.10
2019-05-10T11:39:26.190Z,16.57
2019-05-10T11:42:02.257Z,16.31
2019-05-10T11:44:26.534Z,16.45
2019-05-10T11:46:57.102Z,16.86
2019-05-10T11:49:27.117Z,17.13
2019-05-10T11:51:58.870Z,17.63
2019-05-10T11:54:31.722Z,18.02
2019-05-10T11:57:06.678Z,17.33
2019-05-10T11:59:38.614Z,17.89
2019-05-10T12:02:10.459Z,18.16
2019-05-10T12:04:43.416Z,18.21
2019-05-10T12:07:13.671Z,18.05
2019-05-10T12:09:44.982Z,18.60
2019-05-10T12:12:14.994Z,18.57
2019-05-10T12:14:46.589Z,18.38
2019-05-10T12:17:17.645Z,18.07
2019-05-10T12:22:21.727Z,18.70
2019-05-10T12:26:05.396Z,18.21
2019-05-10T12:26:33.848Z,18.66
2019-05-10T12:27:28.822Z,18.16
2019-05-10T12:30:02.573Z,18.65
2019-05-10T12:32:35.187Z,18.48
2019-05-10T12:35:03.914Z,18.55
2019-05-10T12:37:33.964Z,18.61
2019-05-10T12:40:11.839Z,19.15
2019-05-10T12:42:41.684Z,19.27
2019-05-10T12:45:11.486Z,18.93
2019-05-10T12:47:41.904Z,19.68
2019-05-10T12:50:12.325Z,19.90
2019-05-10T12:52:43.330Z,20.62
2019-05-10T12:55:15.990Z,20.46
2019-05-10T12:57:47.913Z,20.08
2019-05-10T13:00:19.851Z,19.44
2019-05-10T13:02:51.649Z,20.08
2019-05-10T13:05:31.126Z,20.31
2019-05-10T13:07:55.307Z,20.55
2019-05-10T13:10:25.821Z,20.33
2019-05-10T13:12:56.444Z,20.22
2019-05-10T13:15:31.184Z,19.85
2019-05-10T13:18:00.682Z,19.95
2019-05-10T13:20:36.410Z,19.97
2019-05-10T13:23:00.820Z,20.04
2019-05-10T13:25:32.156Z,19.95
2019-05-10T13:28:02.678Z,20.22
2019-05-10T13:30:33.384Z,20.42
2019-05-10T13:33:05.230Z,20.32
2019-05-10T13:35:36.736Z,20.01
2019-05-10T13:38:07.128Z,19.72
2019-05-10T13:40:45.313Z,19.63
2019-05-10T13:43:10.686Z,19.96
2019-05-10T13:45:42.837Z,20.13
2019-05-10T13:48:15.594Z,20.38
2019-05-10T13:50:47.187Z,20.22
2019-05-10T13:53:20.885Z,20.12
2019-05-10T13:55:52.569Z,20.04
2019-05-10T13:58:25.905Z,20.50
2019-05-10T14:00:58.042Z,20.45
2019-05-10T14:03:43.244Z,20.35
2019-05-10T14:06:03.370Z,20.28
2019-05-10T14:08:33.957Z,20.18
2019-05-10T14:11:04.966Z,20.36
2019-05-10T14:13:40.626Z,20.10
2019-05-10T14:16:08.529Z,20.48
2019-05-10T14:18:39.036Z,21.20
2019-05-10T14:21:09.324Z,21.87
2019-05-10T14:23:40.040Z,22.00
2019-05-10T14:26:16.081Z,21.83
2019-05-10T14:28:42.665Z,21.89
2019-05-10T14:31:13.502Z,21.93
2019-05-10T14:33:49.707Z,21.41
2019-05-10T14:36:19.644Z,21.28
2019-05-10T14:38:53.843Z,20.82
2019-05-10T14:41:21.368Z,20.79
2019-05-10T14:43:51.646Z,20.56
2019-05-10T14:46:21.972Z,20.42
2019-05-10T14:48:52.532Z,20.21
2019-05-10T14:51:22.556Z,20.12
2019-05-10T14:53:58.333Z,20.32
2019-05-10T14:56:27.475Z,20.72
2019-05-10T14:58:57.353Z,21.41
2019-05-10T15:01:28.270Z,21.70
2019-05-10T15:03:58.316Z,21.76
2019-05-10T15:06:30.919Z,21.16
2019-05-10T15:09:03.165Z,20.99
2019-05-10T15:11:33.362Z,21.21
2019-05-10T15:14:04.331Z,21.38
2019-05-10T15:16:34.989Z,21.20
2019-05-10T15:19:05.384Z,21.17
2019-05-10T15:21:35.732Z,21.29
2019-05-10T15:24:06.682Z,20.93
2019-05-10T15:26:43.677Z,20.84
2019-05-10T15:29:14.989Z,20.73
2019-05-10T15:31:41.315Z,20.62
2019-05-10T15:34:12.643Z,20.53
2019-05-10T15:36:42.659Z,20.71
2019-05-10T15:39:13.052Z,20.66
2019-05-10T15:41:43.442Z,20.73
2019-05-10T15:44:14.590Z,20.84
2019-05-10T15:46:45.250Z,20.79
2019-05-10T15:49:22.762Z,20.96
2019-05-10T15:51:49.142Z,20.66
2019-05-10T15:54:19.444Z,20.81
2019-05-10T15:56:50.295Z,21.11
2019-05-10T15:59:21.545Z,21.39
2019-05-10T16:01:51.553Z,21.41
2019-05-10T16:04:22.036Z,21.38
2019-05-10T16:06:52.282Z,21.06
2019-05-10T16:09:22.721Z,21.43
2019-05-10T16:11:55.901Z,21.23
2019-05-10T16:14:24.699Z,21.28
2019-05-10T16:16:55.099Z,21.64
2019-05-10T16:19:25.342Z,21.94
2019-05-10T16:21:58.403Z,22.19
2019-05-10T16:24:28.625Z,22.18
2019-05-10T16:27:00.010Z,21.42
2019-05-10T16:29:33.619Z,20.49
2019-05-10T16:32:02.881Z,19.50
2019-05-10T16:34:34.255Z,19.26
2019-05-10T16:37:04.885Z,19.62
2019-05-10T16:39:35.045Z,19.56
2019-05-10T16:42:05.142Z,19.98
2019-05-10T16:44:35.166Z,20.19
2019-05-10T16:47:05.782Z,20.39
2019-05-10T16:49:35.973Z,20.60
2019-05-10T16:52:08.534Z,20.42
2019-05-10T16:54:38.748Z,20.04
2019-05-10T16:57:11.591Z,19.37
2019-05-10T16:59:42.173Z,18.82
2019-05-10T17:02:12.668Z,18.34
2019-05-10T17:04:43.997Z,17.84
2019-05-10T17:07:18.963Z,17.38
2019-05-10T17:09:49.465Z,16.81
2019-05-10T17:12:27.614Z,17.58
2019-05-10T17:14:56.246Z,17.94
2019-05-10T17:17:31.235Z,18.19
2019-05-10T17:19:59.505Z,17.88
2019-05-10T17:22:29.474Z,18.84
2019-05-10T17:25:03.482Z,18.84
2019-05-10T17:27:33.045Z,18.81
2019-05-10T17:30:11.679Z,18.48
2019-05-10T17:32:44.504Z,18.25
2019-05-10T17:35:16.226Z,17.86
2019-05-10T17:37:46.918Z,17.52
2019-05-10T17:40:18.432Z,17.05
2019-05-10T17:42:51.863Z,16.48
2019-05-10T17:45:22.797Z,16.29
2019-05-10T17:47:53.014Z,16.04
2019-05-10T17:50:23.749Z,15.94
2019-05-10T17:52:54.868Z,15.93
2019-05-10T17:55:26.165Z,16.00
2019-05-10T17:57:56.577Z,16.00
2019-05-10T18:00:26.784Z,16.03
2019-05-10T18:02:57.356Z,15.87
2019-05-10T18:05:27.331Z,15.77
2019-05-10T18:07:57.760Z,15.69
2019-05-10T18:10:28.447Z,15.61
2019-05-10T18:13:03.351Z,15.53
2019-05-10T18:15:32.971Z,15.44
2019-05-10T18:18:04.372Z,15.37
2019-05-10T18:20:40.834Z,15.41
2019-05-10T18:23:07.291Z,15.39
2019-05-10T18:25:38.588Z,15.31
2019-05-10T18:28:08.811Z,15.29
2019-05-10T18:30:38.778Z,15.20
2019-05-10T18:33:12.518Z,15.26
2019-05-10T18:35:40.813Z,15.20
2019-05-10T18:38:11.062Z,15.06
2019-05-10T18:40:41.275Z,14.93
2019-05-10T18:43:11.615Z,14.86
2019-05-10T18:45:41.820Z,14.93
2019-05-10T18:48:12.413Z,14.99
2019-05-10T18:50:45.233Z,14.82
2019-05-10T18:53:16.227Z,14.82
2019-05-10T18:55:49.062Z,14.77
2019-05-10T18:58:23.448Z,14.16
2019-05-10T19:00:56.158Z,14.54
2019-05-10T19:03:27.972Z,14.45
2019-05-10T19:05:57.111Z,14.43
2019-05-10T19:08:27.062Z,14.41
2019-05-10T19:10:57.535Z,14.34
2019-05-10T19:13:32.631Z,14.30
2019-05-10T19:15:59.896Z,14.08
2019-05-10T19:18:30.489Z,13.95
2019-05-10T19:21:03.520Z,14.12
2019-05-10T19:23:33.992Z,14.05
2019-05-10T19:26:12.176Z,13.99
2019-05-10T19:28:45.621Z,13.93
2019-05-10T19:31:15.677Z,13.86
2019-05-10T19:33:45.732Z,13.81
2019-05-10T19:36:15.850Z,13.78
2019-05-10T19:38:46.177Z,13.72
2019-05-10T19:41:20.251Z,13.65
2019-05-10T19:43:49.999Z,13.60
2019-05-10T19:46:19.714Z,13.54
2019-05-10T19:48:49.942Z,13.48
2019-05-10T19:51:22.775Z,13.44
2019-05-10T19:53:52.469Z,13.39
2019-05-10T19:56:22.637Z,13.33
2019-05-10T19:58:58.506Z,13.28
2019-05-10T20:01:28.955Z,13.22
2019-05-10T20:04:00.981Z,13.14
2019-05-10T20:06:31.144Z,13.08
2019-05-10T20:09:03.052Z,13.04
2019-05-10T20:11:33.682Z,13.01
2019-05-10T20:14:07.624Z,12.96
2019-05-10T20:16:51.508Z,12.91
2019-05-10T20:19:10.781Z,12.86
2019-05-10T20:21:41.194Z,12.83
2019-05-10T20:24:11.540Z,12.79
2019-05-10T20:26:41.652Z,12.76
2019-05-10T20:29:12.397Z,12.70
2019-05-10T20:31:42.273Z,12.68
2019-05-10T20:34:12.339Z,12.64
2019-05-10T20:36:42.551Z,12.59
2019-05-10T20:39:13.488Z,12.54
2019-05-10T20:41:44.665Z,12.50
2019-05-10T20:44:14.624Z,12.46
2019-05-10T20:46:46.660Z,12.42
2019-05-10T20:49:17.127Z,12.40
2019-05-10T20:51:47.186Z,12.37
2019-05-10T20:54:18.169Z,12.38
2019-05-10T20:56:48.482Z,12.38
2019-05-10T20:59:18.781Z,12.41
2019-05-10T21:01:48.613Z,12.42
2019-05-10T21:04:18.705Z,12.40
2019-05-10T21:06:48.819Z,12.33
2019-05-10T21:09:19.101Z,12.32
2019-05-10T21:11:48.966Z,12.28
2019-05-10T21:14:20.048Z,12.21
2019-05-10T21:16:50.213Z,12.19
2019-05-10T21:19:20.326Z,12.20
2019-05-10T21:21:50.330Z,12.22
2019-05-10T21:24:20.488Z,12.30
2019-05-10T21:26:50.540Z,12.31
2019-05-10T21:29:20.937Z,12.36
2019-05-10T21:31:50.999Z,12.38
2019-05-10T21:34:20.956Z,12.36
2019-05-10T21:36:51.806Z,12.33
2019-05-10T21:39:22.384Z,12.38
2019-05-10T21:41:52.468Z,12.41
2019-05-10T21:44:23.200Z,12.43
2019-05-10T21:46:54.566Z,12.44
2019-05-10T21:49:25.252Z,12.44
2019-05-10T21:51:56.166Z,12.44
2019-05-10T21:54:26.357Z,12.45
2019-05-10T21:56:56.432Z,12.45
2019-05-10T21:59:26.514Z,12.45
2019-05-10T22:01:57.075Z,12.47
2019-05-10T22:04:28.902Z,12.50
2019-05-10T22:06:59.776Z,12.49
2019-05-10T22:09:30.402Z,12.50
2019-05-10T22:12:01.337Z,12.55
2019-05-10T22:14:31.475Z,12.53
2019-05-10T22:17:02.446Z,12.61
2019-05-10T22:19:32.816Z,12.56
2019-05-10T22:22:03.153Z,12.55
2019-05-10T22:24:33.049Z,12.52
2019-05-10T22:27:03.380Z,12.54
2019-05-10T22:29:33.916Z,12.51
2019-05-10T22:32:04.774Z,12.52
2019-05-10T22:34:35.122Z,12.54
2019-05-10T22:37:05.986Z,12.55
2019-05-10T22:39:36.084Z,12.60
2019-05-10T22:42:07.173Z,12.63
2019-05-10T22:44:37.613Z,12.62
2019-05-10T22:47:08.694Z,12.66
2019-05-10T22:49:39.135Z,12.66
2019-05-10T22:52:09.437Z,12.66
2019-05-10T22:54:40.174Z,12.72
2019-05-10T22:57:10.177Z,12.73
2019-05-10T22:59:40.331Z,12.73
2019-05-10T23:02:10.522Z,12.77
2019-05-10T23:04:40.845Z,12.81
2019-05-10T23:07:11.050Z,12.79
2019-05-10T23:09:42.368Z,12.88
2019-05-10T23:12:12.593Z,12.90
2019-05-10T23:14:43.349Z,12.93
2019-05-10T23:17:15.173Z,12.95
2019-05-10T23:19:45.547Z,12.96
2019-05-10T23:22:15.904Z,12.96
2019-05-10T23:24:46.617Z,12.98
2019-05-10T23:27:17.796Z,12.99
2019-05-10T23:29:48.539Z,12.98
2019-05-10T23:32:19.642Z,13.00
2019-05-10T23:34:49.746Z,12.96
2019-05-10T23:37:20.617Z,12.93
2019-05-10T23:39:50.434Z,12.93
2019-05-10T23:42:20.466Z,12.89
2019-05-10T23:44:50.532Z,12.86
2019-05-10T23:47:21.164Z,12.89
2019-05-10T23:49:51.070Z,12.92
2019-05-10T23:52:21.085Z,12.95
2019-05-10T23:54:51.703Z,12.97
2019-05-10T23:57:22.136Z,12.97
2019-05-10T23:59:52.178Z,12.94
